sensor_id;sensor_type;location;lat;lon;timestamp;P1;durP1;ratioP1;P2;durP2;ratioP2
73526;SDS011;61777;48.834;10.470;2022-09-09T00:00:35;3.47;;;1.10;;
73526;SDS011;61777;48.834;10.470;2022-09-09T00:03:20;4.22;;;1.10;;
73526;SDS011;61777;48.834;10.470;2022-09-09T00:08:19;4.82;;;1.42;;
73526;SDS011;61777;48.834;10.470;2022-09-09T00:10:45;3.90;;;1.30;;
73526;SDS011;61777;48.834;10.470;2022-09-09T00:13:16;4.45;;;1.25;;
73526;SDS011;61777;48.834;10.470;2022-09-09T00:15:48;3.13;;;1.05;;
73526;SDS011;61777;48.834;10.470;2022-09-09T00:18:24;3.75;;;1.02;;
73526;SDS011;61777;48.834;10.470;2022-09-09T00:21:06;2.95;;;1.05;;
73526;SDS011;61777;48.834;10.470;2022-09-09T00:23:40;5.13;;;1.20;;
73526;SDS011;61777;48.834;10.470;2022-09-09T00:26:19;4.25;;;1.30;;
73526;SDS011;61777;48.834;10.470;2022-09-09T00:31:23;2.92;;;1.10;;
73526;SDS011;61777;48.834;10.470;2022-09-09T00:33:49;4.22;;;1.30;;
73526;SDS011;61777;48.834;10.470;2022-09-09T00:36:17;4.55;;;1.20;;
73526;SDS011;61777;48.834;10.470;2022-09-09T00:38:48;3.10;;;1.00;;
73526;SDS011;61777;48.834;10.470;2022-09-09T00:43:42;3.35;;;1.10;;
73526;SDS011;61777;48.834;10.470;2022-09-09T00:49:07;4.50;;;1.30;;
73526;SDS011;61777;48.834;10.470;2022-09-09T00:56:35;4.50;;;1.10;;
73526;SDS011;61777;48.834;10.470;2022-09-09T01:02:07;3.58;;;1.10;;
73526;SDS011;61777;48.834;10.470;2022-09-09T01:04:34;4.20;;;1.40;;
73526;SDS011;61777;48.834;10.470;2022-09-09T01:07:04;3.22;;;1.10;;
73526;SDS011;61777;48.834;10.470;2022-09-09T01:12:09;3.78;;;0.80;;
73526;SDS011;61777;48.834;10.470;2022-09-09T01:14:40;2.60;;;1.10;;
73526;SDS011;61777;48.834;10.470;2022-09-09T01:19:37;4.22;;;1.20;;
73526;SDS011;61777;48.834;10.470;2022-09-09T01:27:49;3.70;;;1.10;;
73526;SDS011;61777;48.834;10.470;2022-09-09T01:30:17;3.50;;;1.05;;
73526;SDS011;61777;48.834;10.470;2022-09-09T01:32:47;3.53;;;1.23;;
73526;SDS011;61777;48.834;10.470;2022-09-09T01:35:15;5.00;;;1.10;;
73526;SDS011;61777;48.834;10.470;2022-09-09T01:37:46;2.92;;;1.00;;
73526;SDS011;61777;48.834;10.470;2022-09-09T01:40:12;3.72;;;1.10;;
73526;SDS011;61777;48.834;10.470;2022-09-09T01:42:38;3.33;;;1.20;;
73526;SDS011;61777;48.834;10.470;2022-09-09T01:45:04;4.05;;;1.02;;
73526;SDS011;61777;48.834;10.470;2022-09-09T01:47:30;2.92;;;1.02;;
73526;SDS011;61777;48.834;10.470;2022-09-09T01:49:56;4.90;;;1.23;;
73526;SDS011;61777;48.834;10.470;2022-09-09T01:52:23;4.38;;;1.00;;
73526;SDS011;61777;48.834;10.470;2022-09-09T01:54:49;2.45;;;1.02;;
73526;SDS011;61777;48.834;10.470;2022-09-09T02:02:17;4.18;;;1.00;;
73526;SDS011;61777;48.834;10.470;2022-09-09T02:07:14;2.85;;;0.95;;
73526;SDS011;61777;48.834;10.470;2022-09-09T02:09:47;3.83;;;1.20;;
73526;SDS011;61777;48.834;10.470;2022-09-09T02:12:15;3.20;;;1.00;;
73526;SDS011;61777;48.834;10.470;2022-09-09T02:14:45;3.67;;;1.02;;
73526;SDS011;61777;48.834;10.470;2022-09-09T02:17:13;3.95;;;1.25;;
73526;SDS011;61777;48.834;10.470;2022-09-09T02:19:48;4.30;;;1.15;;
73526;SDS011;61777;48.834;10.470;2022-09-09T02:22:17;4.10;;;1.20;;
73526;SDS011;61777;48.834;10.470;2022-09-09T02:24:45;3.45;;;1.10;;
73526;SDS011;61777;48.834;10.470;2022-09-09T02:27:15;2.72;;;1.00;;
73526;SDS011;61777;48.834;10.470;2022-09-09T02:29:43;3.03;;;1.02;;
73526;SDS011;61777;48.834;10.470;2022-09-09T02:32:13;4.50;;;1.13;;
73526;SDS011;61777;48.834;10.470;2022-09-09T02:34:43;4.05;;;1.23;;
73526;SDS011;61777;48.834;10.470;2022-09-09T02:37:11;4.55;;;1.20;;
73526;SDS011;61777;48.834;10.470;2022-09-09T02:39:38;3.28;;;1.20;;
73526;SDS011;61777;48.834;10.470;2022-09-09T02:42:05;2.88;;;1.08;;
73526;SDS011;61777;48.834;10.470;2022-09-09T02:44:33;2.45;;;0.90;;
73526;SDS011;61777;48.834;10.470;2022-09-09T02:52:07;2.67;;;1.00;;
73526;SDS011;61777;48.834;10.470;2022-09-09T02:54:39;3.00;;;1.20;;
73526;SDS011;61777;48.834;10.470;2022-09-09T02:57:13;2.80;;;1.10;;
73526;SDS011;61777;48.834;10.470;2022-09-09T02:59:42;3.50;;;1.13;;
73526;SDS011;61777;48.834;10.470;2022-09-09T03:02:12;4.07;;;1.15;;
73526;SDS011;61777;48.834;10.470;2022-09-09T03:04:39;3.67;;;0.90;;
73526;SDS011;61777;48.834;10.470;2022-09-09T03:07:07;4.10;;;1.33;;
73526;SDS011;61777;48.834;10.470;2022-09-09T03:09:34;3.63;;;1.13;;
73526;SDS011;61777;48.834;10.470;2022-09-09T03:12:00;3.83;;;1.13;;
73526;SDS011;61777;48.834;10.470;2022-09-09T03:14:27;3.15;;;0.93;;
73526;SDS011;61777;48.834;10.470;2022-09-09T03:16:53;3.95;;;1.10;;
73526;SDS011;61777;48.834;10.470;2022-09-09T03:19:20;3.00;;;1.05;;
73526;SDS011;61777;48.834;10.470;2022-09-09T03:21:46;3.35;;;1.02;;
73526;SDS011;61777;48.834;10.470;2022-09-09T03:24:13;3.60;;;1.23;;
73526;SDS011;61777;48.834;10.470;2022-09-09T03:26:42;4.22;;;1.10;;
73526;SDS011;61777;48.834;10.470;2022-09-09T03:29:12;3.08;;;1.00;;
73526;SDS011;61777;48.834;10.470;2022-09-09T03:31:38;3.35;;;1.20;;
73526;SDS011;61777;48.834;10.470;2022-09-09T03:34:05;3.65;;;1.00;;
73526;SDS011;61777;48.834;10.470;2022-09-09T03:36:31;3.65;;;1.10;;
73526;SDS011;61777;48.834;10.470;2022-09-09T03:38:58;4.18;;;0.98;;
73526;SDS011;61777;48.834;10.470;2022-09-09T03:41:25;3.55;;;1.05;;
73526;SDS011;61777;48.834;10.470;2022-09-09T03:43:52;3.20;;;1.20;;
73526;SDS011;61777;48.834;10.470;2022-09-09T03:46:19;3.90;;;1.00;;
73526;SDS011;61777;48.834;10.470;2022-09-09T03:48:46;4.95;;;1.00;;
73526;SDS011;61777;48.834;10.470;2022-09-09T03:51:12;4.95;;;1.10;;
73526;SDS011;61777;48.834;10.470;2022-09-09T03:53:38;2.97;;;1.00;;
73526;SDS011;61777;48.834;10.470;2022-09-09T03:56:05;3.38;;;1.35;;
73526;SDS011;61777;48.834;10.470;2022-09-09T03:58:32;2.80;;;0.90;;
73526;SDS011;61777;48.834;10.470;2022-09-09T04:01:00;3.83;;;1.23;;
73526;SDS011;61777;48.834;10.470;2022-09-09T04:03:26;2.72;;;1.00;;
73526;SDS011;61777;48.834;10.470;2022-09-09T04:05:52;2.28;;;0.88;;
73526;SDS011;61777;48.834;10.470;2022-09-09T04:08:19;3.15;;;1.20;;
73526;SDS011;61777;48.834;10.470;2022-09-09T04:10:47;2.88;;;1.10;;
73526;SDS011;61777;48.834;10.470;2022-09-09T04:13:13;3.30;;;1.00;;
73526;SDS011;61777;48.834;10.470;2022-09-09T04:15:41;2.75;;;1.00;;
73526;SDS011;61777;48.834;10.470;2022-09-09T04:18:08;3.15;;;0.95;;
73526;SDS011;61777;48.834;10.470;2022-09-09T04:20:34;5.80;;;1.20;;
73526;SDS011;61777;48.834;10.470;2022-09-09T04:23:00;3.38;;;0.82;;
73526;SDS011;61777;48.834;10.470;2022-09-09T04:25:27;3.72;;;1.08;;
73526;SDS011;61777;48.834;10.470;2022-09-09T04:27:56;3.60;;;1.10;;
73526;SDS011;61777;48.834;10.470;2022-09-09T04:30:23;3.25;;;1.10;;
73526;SDS011;61777;48.834;10.470;2022-09-09T04:32:49;3.78;;;0.95;;
73526;SDS011;61777;48.834;10.470;2022-09-09T04:35:15;4.97;;;1.00;;
73526;SDS011;61777;48.834;10.470;2022-09-09T04:37:43;3.65;;;1.00;;
73526;SDS011;61777;48.834;10.470;2022-09-09T04:40:10;4.72;;;1.10;;
73526;SDS011;61777;48.834;10.470;2022-09-09T04:42:36;3.33;;;0.90;;
73526;SDS011;61777;48.834;10.470;2022-09-09T04:45:02;3.10;;;1.10;;
73526;SDS011;61777;48.834;10.470;2022-09-09T04:47:28;2.83;;;1.05;;
73526;SDS011;61777;48.834;10.470;2022-09-09T04:49:54;4.30;;;1.20;;
73526;SDS011;61777;48.834;10.470;2022-09-09T04:52:21;4.93;;;1.10;;
73526;SDS011;61777;48.834;10.470;2022-09-09T04:54:48;3.08;;;0.98;;
73526;SDS011;61777;48.834;10.470;2022-09-09T04:57:14;4.80;;;0.90;;
73526;SDS011;61777;48.834;10.470;2022-09-09T04:59:41;4.53;;;1.20;;
73526;SDS011;61777;48.834;10.470;2022-09-09T05:02:07;5.47;;;1.10;;
73526;SDS011;61777;48.834;10.470;2022-09-09T05:04:33;6.32;;;1.33;;
73526;SDS011;61777;48.834;10.470;2022-09-09T05:06:59;6.75;;;1.40;;
73526;SDS011;61777;48.834;10.470;2022-09-09T05:09:25;4.32;;;1.20;;
73526;SDS011;61777;48.834;10.470;2022-09-09T05:11:51;3.97;;;1.00;;
73526;SDS011;61777;48.834;10.470;2022-09-09T05:14:18;3.45;;;0.90;;
73526;SDS011;61777;48.834;10.470;2022-09-09T05:16:44;4.00;;;1.05;;
73526;SDS011;61777;48.834;10.470;2022-09-09T05:19:10;6.00;;;1.38;;
73526;SDS011;61777;48.834;10.470;2022-09-09T05:21:46;6.10;;;1.20;;
73526;SDS011;61777;48.834;10.470;2022-09-09T05:24:19;4.40;;;1.55;;
73526;SDS011;61777;48.834;10.470;2022-09-09T05:26:48;5.60;;;1.42;;
73526;SDS011;61777;48.834;10.470;2022-09-09T05:29:14;5.70;;;1.30;;
73526;SDS011;61777;48.834;10.470;2022-09-09T05:31:44;5.75;;;1.15;;
73526;SDS011;61777;48.834;10.470;2022-09-09T05:34:12;5.47;;;1.40;;
73526;SDS011;61777;48.834;10.470;2022-09-09T05:36:38;4.22;;;1.20;;
73526;SDS011;61777;48.834;10.470;2022-09-09T05:39:05;12.98;;;1.73;;
73526;SDS011;61777;48.834;10.470;2022-09-09T05:41:31;5.00;;;1.30;;
73526;SDS011;61777;48.834;10.470;2022-09-09T05:43:57;6.47;;;1.48;;
73526;SDS011;61777;48.834;10.470;2022-09-09T05:46:26;6.40;;;1.40;;
73526;SDS011;61777;48.834;10.470;2022-09-09T05:48:52;7.03;;;1.50;;
73526;SDS011;61777;48.834;10.470;2022-09-09T05:51:22;7.15;;;1.75;;
73526;SDS011;61777;48.834;10.470;2022-09-09T05:53:49;6.32;;;1.50;;
73526;SDS011;61777;48.834;10.470;2022-09-09T05:56:19;7.53;;;1.52;;
73526;SDS011;61777;48.834;10.470;2022-09-09T05:58:50;6.88;;;1.13;;
73526;SDS011;61777;48.834;10.470;2022-09-09T06:01:27;5.63;;;1.48;;
73526;SDS011;61777;48.834;10.470;2022-09-09T06:03:54;5.07;;;1.30;;
73526;SDS011;61777;48.834;10.470;2022-09-09T06:06:21;6.35;;;1.38;;
73526;SDS011;61777;48.834;10.470;2022-09-09T06:08:47;5.82;;;1.55;;
73526;SDS011;61777;48.834;10.470;2022-09-09T06:11:17;5.18;;;1.30;;
73526;SDS011;61777;48.834;10.470;2022-09-09T06:13:44;5.30;;;1.38;;
73526;SDS011;61777;48.834;10.470;2022-09-09T06:16:11;3.50;;;1.00;;
73526;SDS011;61777;48.834;10.470;2022-09-09T06:18:38;5.55;;;1.42;;
73526;SDS011;61777;48.834;10.470;2022-09-09T06:21:05;5.90;;;1.30;;
73526;SDS011;61777;48.834;10.470;2022-09-09T06:23:31;4.80;;;1.10;;
73526;SDS011;61777;48.834;10.470;2022-09-09T06:26:05;5.55;;;1.40;;
73526;SDS011;61777;48.834;10.470;2022-09-09T06:28:34;5.35;;;1.33;;
73526;SDS011;61777;48.834;10.470;2022-09-09T06:31:02;5.22;;;1.20;;
73526;SDS011;61777;48.834;10.470;2022-09-09T06:33:35;4.97;;;1.30;;
73526;SDS011;61777;48.834;10.470;2022-09-09T06:36:06;5.82;;;1.35;;
73526;SDS011;61777;48.834;10.470;2022-09-09T06:38:32;5.28;;;1.27;;
73526;SDS011;61777;48.834;10.470;2022-09-09T06:40:59;5.82;;;1.30;;
73526;SDS011;61777;48.834;10.470;2022-09-09T06:43:25;6.20;;;1.40;;
73526;SDS011;61777;48.834;10.470;2022-09-09T06:45:52;5.22;;;1.40;;
73526;SDS011;61777;48.834;10.470;2022-09-09T06:48:18;4.65;;;1.35;;
73526;SDS011;61777;48.834;10.470;2022-09-09T06:50:44;4.85;;;1.25;;
73526;SDS011;61777;48.834;10.470;2022-09-09T06:53:11;5.03;;;1.25;;
73526;SDS011;61777;48.834;10.470;2022-09-09T06:55:37;5.28;;;1.30;;
73526;SDS011;61777;48.834;10.470;2022-09-09T06:58:08;5.63;;;1.40;;
73526;SDS011;61777;48.834;10.470;2022-09-09T07:00:34;4.47;;;1.50;;
73526;SDS011;61777;48.834;10.470;2022-09-09T07:03:02;5.95;;;1.50;;
73526;SDS011;61777;48.834;10.470;2022-09-09T07:05:28;6.18;;;1.35;;
73526;SDS011;61777;48.834;10.470;2022-09-09T07:07:54;5.32;;;1.30;;
73526;SDS011;61777;48.834;10.470;2022-09-09T07:10:20;6.15;;;1.33;;
73526;SDS011;61777;48.834;10.470;2022-09-09T07:12:50;6.00;;;1.42;;
73526;SDS011;61777;48.834;10.470;2022-09-09T07:15:16;5.32;;;1.23;;
73526;SDS011;61777;48.834;10.470;2022-09-09T07:17:43;6.03;;;1.58;;
73526;SDS011;61777;48.834;10.470;2022-09-09T07:20:10;3.88;;;1.30;;
73526;SDS011;61777;48.834;10.470;2022-09-09T07:22:36;4.85;;;1.33;;
73526;SDS011;61777;48.834;10.470;2022-09-09T07:25:02;3.83;;;1.20;;
73526;SDS011;61777;48.834;10.470;2022-09-09T07:27:28;4.65;;;1.33;;
73526;SDS011;61777;48.834;10.470;2022-09-09T07:29:55;4.57;;;1.30;;
73526;SDS011;61777;48.834;10.470;2022-09-09T07:32:22;4.20;;;1.20;;
73526;SDS011;61777;48.834;10.470;2022-09-09T07:34:50;4.65;;;1.50;;
73526;SDS011;61777;48.834;10.470;2022-09-09T07:37:16;5.40;;;1.20;;
73526;SDS011;61777;48.834;10.470;2022-09-09T07:39:43;5.10;;;1.35;;
73526;SDS011;61777;48.834;10.470;2022-09-09T07:42:09;3.17;;;1.20;;
73526;SDS011;61777;48.834;10.470;2022-09-09T07:44:36;4.95;;;1.10;;
73526;SDS011;61777;48.834;10.470;2022-09-09T07:47:04;5.93;;;1.35;;
73526;SDS011;61777;48.834;10.470;2022-09-09T07:49:30;3.90;;;1.20;;
73526;SDS011;61777;48.834;10.470;2022-09-09T07:51:57;4.78;;;1.20;;
73526;SDS011;61777;48.834;10.470;2022-09-09T07:54:23;4.63;;;1.13;;
73526;SDS011;61777;48.834;10.470;2022-09-09T07:56:50;5.97;;;1.15;;
73526;SDS011;61777;48.834;10.470;2022-09-09T07:59:16;6.57;;;1.35;;
73526;SDS011;61777;48.834;10.470;2022-09-09T08:01:45;4.13;;;1.10;;
73526;SDS011;61777;48.834;10.470;2022-09-09T08:04:15;5.43;;;1.30;;
73526;SDS011;61777;48.834;10.470;2022-09-09T08:06:43;4.68;;;1.10;;
73526;SDS011;61777;48.834;10.470;2022-09-09T08:09:11;3.05;;;1.08;;
73526;SDS011;61777;48.834;10.470;2022-09-09T08:11:38;4.03;;;1.10;;
73526;SDS011;61777;48.834;10.470;2022-09-09T08:14:05;3.72;;;1.10;;
73526;SDS011;61777;48.834;10.470;2022-09-09T08:16:33;3.70;;;1.10;;
73526;SDS011;61777;48.834;10.470;2022-09-09T08:19:01;2.90;;;1.08;;
73526;SDS011;61777;48.834;10.470;2022-09-09T08:21:28;4.45;;;1.20;;
73526;SDS011;61777;48.834;10.470;2022-09-09T08:23:55;4.55;;;1.13;;
73526;SDS011;61777;48.834;10.470;2022-09-09T08:26:26;4.13;;;0.93;;
73526;SDS011;61777;48.834;10.470;2022-09-09T08:28:53;4.68;;;1.25;;
73526;SDS011;61777;48.834;10.470;2022-09-09T08:31:24;4.80;;;1.15;;
73526;SDS011;61777;48.834;10.470;2022-09-09T08:33:52;4.28;;;1.10;;
73526;SDS011;61777;48.834;10.470;2022-09-09T08:36:19;3.40;;;1.10;;
73526;SDS011;61777;48.834;10.470;2022-09-09T08:38:50;3.55;;;1.10;;
73526;SDS011;61777;48.834;10.470;2022-09-09T08:41:22;4.10;;;1.30;;
73526;SDS011;61777;48.834;10.470;2022-09-09T08:43:58;3.22;;;1.00;;
73526;SDS011;61777;48.834;10.470;2022-09-09T08:46:26;2.13;;;1.00;;
73526;SDS011;61777;48.834;10.470;2022-09-09T08:48:58;4.50;;;1.10;;
73526;SDS011;61777;48.834;10.470;2022-09-09T08:51:29;4.15;;;1.23;;
73526;SDS011;61777;48.834;10.470;2022-09-09T08:53:57;4.13;;;1.20;;
73526;SDS011;61777;48.834;10.470;2022-09-09T08:56:25;3.67;;;1.10;;
73526;SDS011;61777;48.834;10.470;2022-09-09T08:58:53;4.85;;;1.08;;
73526;SDS011;61777;48.834;10.470;2022-09-09T09:01:28;4.18;;;1.23;;
73526;SDS011;61777;48.834;10.470;2022-09-09T09:11:27;3.75;;;1.17;;
73526;SDS011;61777;48.834;10.470;2022-09-09T09:16:38;3.33;;;1.10;;
73526;SDS011;61777;48.834;10.470;2022-09-09T09:19:04;3.08;;;1.20;;
73526;SDS011;61777;48.834;10.470;2022-09-09T09:24:04;3.05;;;1.15;;
73526;SDS011;61777;48.834;10.470;2022-09-09T09:26:34;3.53;;;1.30;;
73526;SDS011;61777;48.834;10.470;2022-09-09T09:29:03;3.55;;;1.20;;
73526;SDS011;61777;48.834;10.470;2022-09-09T09:31:34;3.33;;;1.10;;
73526;SDS011;61777;48.834;10.470;2022-09-09T09:34:00;3.45;;;1.10;;
73526;SDS011;61777;48.834;10.470;2022-09-09T09:36:43;5.07;;;1.00;;
73526;SDS011;61777;48.834;10.470;2022-09-09T09:39:22;5.28;;;1.13;;
73526;SDS011;61777;48.834;10.470;2022-09-09T09:41:48;2.80;;;1.00;;
73526;SDS011;61777;48.834;10.470;2022-09-09T09:46:49;3.90;;;1.08;;
73526;SDS011;61777;48.834;10.470;2022-09-09T09:49:15;3.58;;;1.20;;
73526;SDS011;61777;48.834;10.470;2022-09-09T09:51:42;3.10;;;1.00;;
73526;SDS011;61777;48.834;10.470;2022-09-09T09:54:09;2.97;;;1.10;;
73526;SDS011;61777;48.834;10.470;2022-09-09T09:56:39;4.95;;;1.08;;
73526;SDS011;61777;48.834;10.470;2022-09-09T09:59:05;3.22;;;0.90;;
73526;SDS011;61777;48.834;10.470;2022-09-09T10:01:32;3.03;;;1.10;;
73526;SDS011;61777;48.834;10.470;2022-09-09T10:03:59;4.10;;;1.05;;
73526;SDS011;61777;48.834;10.470;2022-09-09T10:06:30;1.90;;;0.90;;
73526;SDS011;61777;48.834;10.470;2022-09-09T10:08:56;2.85;;;1.00;;
73526;SDS011;61777;48.834;10.470;2022-09-09T10:19:31;2.13;;;1.00;;
73526;SDS011;61777;48.834;10.470;2022-09-09T10:22:07;3.83;;;1.15;;
73526;SDS011;61777;48.834;10.470;2022-09-09T10:27:32;2.97;;;1.02;;
73526;SDS011;61777;48.834;10.470;2022-09-09T10:30:10;2.33;;;0.82;;
73526;SDS011;61777;48.834;10.470;2022-09-09T10:51:39;2.85;;;0.90;;
73526;SDS011;61777;48.834;10.470;2022-09-09T10:56:30;4.22;;;1.23;;
73526;SDS011;61777;48.834;10.470;2022-09-09T10:58:59;3.17;;;0.90;;
73526;SDS011;61777;48.834;10.470;2022-09-09T11:01:30;3.42;;;1.00;;
73526;SDS011;61777;48.834;10.470;2022-09-09T11:04:06;2.67;;;0.90;;
73526;SDS011;61777;48.834;10.470;2022-09-09T11:06:38;2.60;;;0.80;;
73526;SDS011;61777;48.834;10.470;2022-09-09T11:09:05;2.78;;;1.02;;
73526;SDS011;61777;48.834;10.470;2022-09-09T11:11:36;2.70;;;1.02;;
73526;SDS011;61777;48.834;10.470;2022-09-09T11:14:18;2.67;;;1.10;;
73526;SDS011;61777;48.834;10.470;2022-09-09T11:16:50;3.42;;;1.10;;
73526;SDS011;61777;48.834;10.470;2022-09-09T11:21:47;2.47;;;0.85;;
73526;SDS011;61777;48.834;10.470;2022-09-09T11:24:36;2.78;;;1.20;;
73526;SDS011;61777;48.834;10.470;2022-09-09T11:27:09;2.55;;;0.80;;
73526;SDS011;61777;48.834;10.470;2022-09-09T11:40:18;2.22;;;0.80;;
73526;SDS011;61777;48.834;10.470;2022-09-09T11:42:45;2.40;;;0.88;;
73526;SDS011;61777;48.834;10.470;2022-09-09T11:45:22;2.25;;;0.90;;
73526;SDS011;61777;48.834;10.470;2022-09-09T11:47:53;3.42;;;1.02;;
73526;SDS011;61777;48.834;10.470;2022-09-09T11:52:46;2.25;;;0.90;;
73526;SDS011;61777;48.834;10.470;2022-09-09T11:55:32;2.70;;;0.85;;
73526;SDS011;61777;48.834;10.470;2022-09-09T12:00:41;2.42;;;0.80;;
73526;SDS011;61777;48.834;10.470;2022-09-09T12:05:54;3.35;;;0.88;;
73526;SDS011;61777;48.834;10.470;2022-09-09T12:08:24;3.45;;;0.90;;
73526;SDS011;61777;48.834;10.470;2022-09-09T12:10:53;3.53;;;1.00;;
73526;SDS011;61777;48.834;10.470;2022-09-09T12:13:21;3.13;;;0.90;;
73526;SDS011;61777;48.834;10.470;2022-09-09T12:15:55;2.92;;;1.00;;
73526;SDS011;61777;48.834;10.470;2022-09-09T12:18:25;2.78;;;0.90;;
73526;SDS011;61777;48.834;10.470;2022-09-09T12:20:57;3.88;;;1.00;;
73526;SDS011;61777;48.834;10.470;2022-09-09T12:23:27;3.17;;;0.88;;
73526;SDS011;61777;48.834;10.470;2022-09-09T12:28:47;2.80;;;1.08;;
73526;SDS011;61777;48.834;10.470;2022-09-09T12:33:55;3.25;;;1.00;;
73526;SDS011;61777;48.834;10.470;2022-09-09T12:36:29;2.70;;;0.90;;
73526;SDS011;61777;48.834;10.470;2022-09-09T12:38:57;1.92;;;0.80;;
73526;SDS011;61777;48.834;10.470;2022-09-09T12:41:26;3.25;;;1.00;;
73526;SDS011;61777;48.834;10.470;2022-09-09T12:44:05;1.55;;;0.80;;
73526;SDS011;61777;48.834;10.470;2022-09-09T12:48:57;3.08;;;0.90;;
73526;SDS011;61777;48.834;10.470;2022-09-09T12:51:26;2.22;;;0.80;;
73526;SDS011;61777;48.834;10.470;2022-09-09T12:53:52;2.40;;;0.80;;
73526;SDS011;61777;48.834;10.470;2022-09-09T12:56:19;1.83;;;0.70;;
73526;SDS011;61777;48.834;10.470;2022-09-09T12:58:46;3.03;;;1.00;;
73526;SDS011;61777;48.834;10.470;2022-09-09T13:01:21;1.40;;;0.70;;
73526;SDS011;61777;48.834;10.470;2022-09-09T13:03:48;2.22;;;0.90;;
73526;SDS011;61777;48.834;10.470;2022-09-09T13:06:32;2.78;;;1.00;;
73526;SDS011;61777;48.834;10.470;2022-09-09T13:09:00;2.85;;;1.05;;
73526;SDS011;61777;48.834;10.470;2022-09-09T13:11:31;2.95;;;1.10;;
73526;SDS011;61777;48.834;10.470;2022-09-09T13:14:01;3.10;;;1.02;;
73526;SDS011;61777;48.834;10.470;2022-09-09T13:16:28;2.47;;;0.90;;
73526;SDS011;61777;48.834;10.470;2022-09-09T13:19:07;1.83;;;0.80;;
73526;SDS011;61777;48.834;10.470;2022-09-09T13:21:34;2.97;;;0.93;;
73526;SDS011;61777;48.834;10.470;2022-09-09T13:24:02;2.80;;;0.80;;
73526;SDS011;61777;48.834;10.470;2022-09-09T13:26:29;1.13;;;0.70;;
73526;SDS011;61777;48.834;10.470;2022-09-09T13:29:07;1.67;;;0.90;;
73526;SDS011;61777;48.834;10.470;2022-09-09T13:31:35;2.58;;;0.80;;
73526;SDS011;61777;48.834;10.470;2022-09-09T13:34:25;2.45;;;0.85;;
73526;SDS011;61777;48.834;10.470;2022-09-09T13:37:01;2.75;;;0.90;;
73526;SDS011;61777;48.834;10.470;2022-09-09T13:39:28;3.28;;;0.80;;
73526;SDS011;61777;48.834;10.470;2022-09-09T13:41:54;2.70;;;1.00;;
73526;SDS011;61777;48.834;10.470;2022-09-09T13:44:21;2.15;;;0.90;;
73526;SDS011;61777;48.834;10.470;2022-09-09T13:46:59;1.73;;;0.90;;
73526;SDS011;61777;48.834;10.470;2022-09-09T13:49:27;2.22;;;0.93;;
73526;SDS011;61777;48.834;10.470;2022-09-09T13:52:02;2.65;;;0.80;;
73526;SDS011;61777;48.834;10.470;2022-09-09T13:54:29;2.25;;;0.85;;
73526;SDS011;61777;48.834;10.470;2022-09-09T13:56:55;1.60;;;0.70;;
73526;SDS011;61777;48.834;10.470;2022-09-09T13:59:21;1.73;;;0.80;;
73526;SDS011;61777;48.834;10.470;2022-09-09T14:01:49;3.17;;;1.00;;
73526;SDS011;61777;48.834;10.470;2022-09-09T14:04:17;2.70;;;0.90;;
73526;SDS011;61777;48.834;10.470;2022-09-09T14:06:45;2.35;;;0.70;;
73526;SDS011;61777;48.834;10.470;2022-09-09T14:09:12;3.15;;;0.88;;
73526;SDS011;61777;48.834;10.470;2022-09-09T14:11:39;1.13;;;0.70;;
73526;SDS011;61777;48.834;10.470;2022-09-09T14:14:06;2.13;;;0.70;;
73526;SDS011;61777;48.834;10.470;2022-09-09T14:16:32;2.65;;;0.90;;
73526;SDS011;61777;48.834;10.470;2022-09-09T14:18:58;3.63;;;1.00;;
73526;SDS011;61777;48.834;10.470;2022-09-09T14:21:24;3.33;;;0.85;;
73526;SDS011;61777;48.834;10.470;2022-09-09T14:23:51;2.38;;;0.82;;
73526;SDS011;61777;48.834;10.470;2022-09-09T14:26:23;2.42;;;0.90;;
73526;SDS011;61777;48.834;10.470;2022-09-09T14:28:49;1.77;;;0.68;;
73526;SDS011;61777;48.834;10.470;2022-09-09T14:31:15;2.47;;;1.00;;
73526;SDS011;61777;48.834;10.470;2022-09-09T14:33:44;2.03;;;0.80;;
73526;SDS011;61777;48.834;10.470;2022-09-09T14:36:10;1.52;;;0.90;;
73526;SDS011;61777;48.834;10.470;2022-09-09T14:38:37;1.90;;;0.90;;
73526;SDS011;61777;48.834;10.470;2022-09-09T14:41:05;2.25;;;0.85;;
73526;SDS011;61777;48.834;10.470;2022-09-09T14:43:31;2.28;;;0.80;;
73526;SDS011;61777;48.834;10.470;2022-09-09T14:45:57;1.92;;;0.77;;
73526;SDS011;61777;48.834;10.470;2022-09-09T14:48:23;2.10;;;0.77;;
73526;SDS011;61777;48.834;10.470;2022-09-09T14:50:49;2.58;;;0.70;;
73526;SDS011;61777;48.834;10.470;2022-09-09T14:53:16;3.10;;;0.90;;
73526;SDS011;61777;48.834;10.470;2022-09-09T14:55:42;2.33;;;1.00;;
73526;SDS011;61777;48.834;10.470;2022-09-09T14:58:08;2.28;;;0.80;;
73526;SDS011;61777;48.834;10.470;2022-09-09T15:00:34;2.05;;;0.70;;
73526;SDS011;61777;48.834;10.470;2022-09-09T15:03:01;2.55;;;0.70;;
73526;SDS011;61777;48.834;10.470;2022-09-09T15:05:27;1.35;;;0.70;;
73526;SDS011;61777;48.834;10.470;2022-09-09T15:07:53;1.42;;;0.60;;
73526;SDS011;61777;48.834;10.470;2022-09-09T15:10:19;0.90;;;0.60;;
73526;SDS011;61777;48.834;10.470;2022-09-09T15:12:46;2.00;;;0.85;;
73526;SDS011;61777;48.834;10.470;2022-09-09T15:15:12;2.65;;;0.80;;
73526;SDS011;61777;48.834;10.470;2022-09-09T15:17:38;2.17;;;0.70;;
73526;SDS011;61777;48.834;10.470;2022-09-09T15:20:04;1.90;;;0.88;;
73526;SDS011;61777;48.834;10.470;2022-09-09T15:22:30;2.80;;;0.93;;
73526;SDS011;61777;48.834;10.470;2022-09-09T15:24:56;2.03;;;0.75;;
73526;SDS011;61777;48.834;10.470;2022-09-09T15:27:22;1.77;;;0.70;;
73526;SDS011;61777;48.834;10.470;2022-09-09T15:29:49;1.80;;;0.90;;
73526;SDS011;61777;48.834;10.470;2022-09-09T15:32:16;2.63;;;0.80;;
73526;SDS011;61777;48.834;10.470;2022-09-09T15:34:42;2.08;;;0.90;;
73526;SDS011;61777;48.834;10.470;2022-09-09T15:37:12;2.15;;;0.82;;
73526;SDS011;61777;48.834;10.470;2022-09-09T15:39:38;1.45;;;0.80;;
73526;SDS011;61777;48.834;10.470;2022-09-09T15:42:04;1.23;;;0.70;;
73526;SDS011;61777;48.834;10.470;2022-09-09T15:44:37;1.70;;;0.60;;
73526;SDS011;61777;48.834;10.470;2022-09-09T15:47:03;2.38;;;0.77;;
73526;SDS011;61777;48.834;10.470;2022-09-09T15:49:30;1.40;;;0.80;;
73526;SDS011;61777;48.834;10.470;2022-09-09T15:51:57;1.17;;;0.70;;
73526;SDS011;61777;48.834;10.470;2022-09-09T15:54:24;1.30;;;0.77;;
73526;SDS011;61777;48.834;10.470;2022-09-09T15:56:51;2.03;;;0.77;;
73526;SDS011;61777;48.834;10.470;2022-09-09T15:59:20;1.60;;;0.70;;
73526;SDS011;61777;48.834;10.470;2022-09-09T16:01:46;2.47;;;0.90;;
73526;SDS011;61777;48.834;10.470;2022-09-09T16:04:12;1.83;;;0.75;;
73526;SDS011;61777;48.834;10.470;2022-09-09T16:06:40;2.08;;;0.80;;
73526;SDS011;61777;48.834;10.470;2022-09-09T16:09:07;1.00;;;0.60;;
73526;SDS011;61777;48.834;10.470;2022-09-09T16:11:35;2.50;;;0.77;;
73526;SDS011;61777;48.834;10.470;2022-09-09T16:14:01;2.30;;;0.82;;
73526;SDS011;61777;48.834;10.470;2022-09-09T16:16:29;0.93;;;0.70;;
73526;SDS011;61777;48.834;10.470;2022-09-09T16:18:59;1.40;;;0.75;;
73526;SDS011;61777;48.834;10.470;2022-09-09T16:21:30;2.45;;;0.73;;
73526;SDS011;61777;48.834;10.470;2022-09-09T16:23:57;2.17;;;0.70;;
73526;SDS011;61777;48.834;10.470;2022-09-09T16:26:27;2.28;;;0.95;;
73526;SDS011;61777;48.834;10.470;2022-09-09T16:28:54;0.95;;;0.52;;
73526;SDS011;61777;48.834;10.470;2022-09-09T16:31:21;1.45;;;0.65;;
73526;SDS011;61777;48.834;10.470;2022-09-09T16:33:48;2.67;;;0.80;;
73526;SDS011;61777;48.834;10.470;2022-09-09T16:36:16;1.45;;;0.70;;
73526;SDS011;61777;48.834;10.470;2022-09-09T16:38:43;1.75;;;0.77;;